Home > Products > Valid Products > MTR

000
SAUS44 KMRX 240856 COR
MTRGDP
METAR KGDP 240851Z AUTO 26032G46KT 10SM CLR 18/M12 A2992 RMK AO2 PK
WND 29046/0849 SLP051 T01781117 53005





000
SAUS44 KMRX 240656 COR
MTRGDP
METAR KGDP 240651Z AUTO 26034G41KT 10SM CLR 18/M07 A2990 RMK AO2 PK
WND 26044/0610 SLP045 T01781067 402610156





000
SAUS44 KMRX 240556 COR
MTRGDP
METAR KGDP 240551Z AUTO 26030G37KT 10SM CLR 18/M06 A2990 RMK AO2 PK
WND 26038/0503 SLP045 T01831056 10244 20178 53013





000
SAUS44 KMRX 240256 COR
MTRGDP
METAR KGDP 240251Z AUTO 25028G37KT 9SM CLR 21/M08 A2985 RMK AO2 PK
WND 25044/0211 SLP039 T02061083 53012





000
SAUS44 KMRX 232356 COR
MTRGDP
METAR KGDP 232351Z AUTO 24029G47KT 9SM CLR 24/M09 A2981 RMK AO2 PK
WND 25049/2327 SLP017 T02441094 10261 20239 56020





000
SAUS44 KMRX 231756 COR
MTRGDP
METAR KGDP 231751Z AUTO 24029G35KT 10SM CLR 25/M02 A2994 RMK AO2 PK
WND 24035/1749 SLP060 T02501022 10250 20156 58011





    US Dept of Commerce
    National Oceanic and Atmospheric Administration
    National Weather Service
    1325 East West Highway
    Silver Spring, MD 20910
    Page Author: NWS Internet Services Team
Disclaimer
Information Quality
Credits
Glossary
Privacy Policy
Freedom of Information Act (FOIA)
About Us
Career Opportunities